sensor_id;sensor_type;location;lat;lon;timestamp;pressure;altitude;pressure_sealevel;temperature;humidity
71465;BME280;59274;49.874;9.154;2023-07-22T00:02:18;100180.28;;;16.17;100.00
71465;BME280;59274;49.874;9.154;2023-07-22T00:04:44;100181.25;;;15.99;100.00
71465;BME280;59274;49.874;9.154;2023-07-22T00:07:11;100181.69;;;15.98;100.00
71465;BME280;59274;49.874;9.154;2023-07-22T00:09:36;100193.94;;;15.86;100.00
71465;BME280;59274;49.874;9.154;2023-07-22T00:12:04;100188.47;;;15.86;100.00
71465;BME280;59274;49.874;9.154;2023-07-22T00:14:30;100188.13;;;15.84;100.00
71465;BME280;59274;49.874;9.154;2023-07-22T00:16:55;100197.84;;;15.89;100.00
71465;BME280;59274;49.874;9.154;2023-07-22T00:19:21;100196.59;;;15.93;100.00
71465;BME280;59274;49.874;9.154;2023-07-22T00:21:46;100191.13;;;15.93;100.00
71465;BME280;59274;49.874;9.154;2023-07-22T00:24:12;100191.91;;;15.94;100.00
71465;BME280;59274;49.874;9.154;2023-07-22T00:26:38;100189.38;;;16.10;100.00
71465;BME280;59274;49.874;9.154;2023-07-22T00:29:03;100190.50;;;16.13;100.00
71465;BME280;59274;49.874;9.154;2023-07-22T00:31:30;100189.69;;;16.16;100.00
71465;BME280;59274;49.874;9.154;2023-07-22T00:33:55;100184.34;;;16.05;100.00
71465;BME280;59274;49.874;9.154;2023-07-22T00:36:20;100183.09;;;16.10;100.00
71465;BME280;59274;49.874;9.154;2023-07-22T00:38:46;100178.44;;;16.06;100.00
71465;BME280;59274;49.874;9.154;2023-07-22T00:41:11;100186.31;;;16.04;100.00
71465;BME280;59274;49.874;9.154;2023-07-22T00:43:37;100181.53;;;16.09;100.00
71465;BME280;59274;49.874;9.154;2023-07-22T00:46:04;100187.03;;;16.09;100.00
71465;BME280;59274;49.874;9.154;2023-07-22T00:48:32;100193.28;;;16.09;100.00
71465;BME280;59274;49.874;9.154;2023-07-22T00:50:58;100188.66;;;16.02;100.00
71465;BME280;59274;49.874;9.154;2023-07-22T00:53:23;100195.34;;;16.01;100.00
71465;BME280;59274;49.874;9.154;2023-07-22T00:55:49;100196.59;;;15.93;100.00
71465;BME280;59274;49.874;9.154;2023-07-22T00:58:15;100186.56;;;15.83;100.00
71465;BME280;59274;49.874;9.154;2023-07-22T01:00:40;100188.53;;;15.83;100.00
71465;BME280;59274;49.874;9.154;2023-07-22T01:03:07;100193.69;;;15.74;100.00
71465;BME280;59274;49.874;9.154;2023-07-22T01:05:34;100183.16;;;15.72;100.00
71465;BME280;59274;49.874;9.154;2023-07-22T01:08:02;100178.91;;;15.68;100.00
71465;BME280;59274;49.874;9.154;2023-07-22T01:10:27;100183.13;;;15.76;100.00
71465;BME280;59274;49.874;9.154;2023-07-22T01:12:55;100183.53;;;15.74;100.00
71465;BME280;59274;49.874;9.154;2023-07-22T01:15:20;100180.47;;;15.65;100.00
71465;BME280;59274;49.874;9.154;2023-07-22T01:17:46;100182.09;;;15.62;100.00
71465;BME280;59274;49.874;9.154;2023-07-22T01:20:12;100186.34;;;15.67;100.00
71465;BME280;59274;49.874;9.154;2023-07-22T01:22:38;100193.38;;;15.68;100.00
71465;BME280;59274;49.874;9.154;2023-07-22T01:25:07;100195.72;;;15.66;100.00
71465;BME280;59274;49.874;9.154;2023-07-22T01:27:32;100190.66;;;15.64;100.00
71465;BME280;59274;49.874;9.154;2023-07-22T01:29:58;100194.66;;;15.56;100.00
71465;BME280;59274;49.874;9.154;2023-07-22T01:32:23;100200.91;;;15.57;100.00
71465;BME280;59274;49.874;9.154;2023-07-22T01:34:49;100190.81;;;15.47;100.00
71465;BME280;59274;49.874;9.154;2023-07-22T01:37:14;100189.22;;;15.49;100.00
71465;BME280;59274;49.874;9.154;2023-07-22T01:39:39;100189.66;;;15.48;100.00
71465;BME280;59274;49.874;9.154;2023-07-22T01:42:05;100190.84;;;15.43;100.00
71465;BME280;59274;49.874;9.154;2023-07-22T01:44:30;100192.84;;;15.39;100.00
71465;BME280;59274;49.874;9.154;2023-07-22T01:46:56;100191.31;;;15.35;100.00
71465;BME280;59274;49.874;9.154;2023-07-22T01:49:22;100187.13;;;15.23;100.00
71465;BME280;59274;49.874;9.154;2023-07-22T01:51:49;100189.97;;;15.12;100.00
71465;BME280;59274;49.874;9.154;2023-07-22T01:54:15;100188.06;;;15.06;100.00
71465;BME280;59274;49.874;9.154;2023-07-22T01:56:40;100185.41;;;14.99;100.00
71465;BME280;59274;49.874;9.154;2023-07-22T01:59:25;100188.53;;;14.97;100.00
71465;BME280;59274;49.874;9.154;2023-07-22T02:01:50;100192.09;;;14.91;100.00
71465;BME280;59274;49.874;9.154;2023-07-22T02:04:17;100185.44;;;14.92;100.00
71465;BME280;59274;49.874;9.154;2023-07-22T02:06:42;100190.19;;;14.84;100.00
71465;BME280;59274;49.874;9.154;2023-07-22T02:09:08;100187.50;;;14.77;100.00
71465;BME280;59274;49.874;9.154;2023-07-22T02:11:35;100191.38;;;14.83;100.00
71465;BME280;59274;49.874;9.154;2023-07-22T02:14:01;100196.47;;;14.81;100.00
71465;BME280;59274;49.874;9.154;2023-07-22T02:16:26;100187.88;;;14.79;100.00
71465;BME280;59274;49.874;9.154;2023-07-22T02:18:51;100191.47;;;14.69;100.00
71465;BME280;59274;49.874;9.154;2023-07-22T02:21:17;100191.16;;;14.56;100.00
71465;BME280;59274;49.874;9.154;2023-07-22T02:23:43;100197.06;;;14.47;100.00
71465;BME280;59274;49.874;9.154;2023-07-22T02:26:08;100199.44;;;14.42;100.00
71465;BME280;59274;49.874;9.154;2023-07-22T02:28:34;100198.66;;;14.41;100.00
71465;BME280;59274;49.874;9.154;2023-07-22T02:31:01;100197.91;;;14.30;100.00
71465;BME280;59274;49.874;9.154;2023-07-22T02:33:32;100198.72;;;14.24;100.00
71465;BME280;59274;49.874;9.154;2023-07-22T02:35:57;100190.19;;;14.11;100.00
71465;BME280;59274;49.874;9.154;2023-07-22T02:38:23;100192.56;;;14.02;100.00
71465;BME280;59274;49.874;9.154;2023-07-22T02:40:48;100188.31;;;13.94;100.00
71465;BME280;59274;49.874;9.154;2023-07-22T02:43:14;100186.38;;;13.91;100.00
71465;BME280;59274;49.874;9.154;2023-07-22T02:45:40;100173.09;;;13.96;100.00
71465;BME280;59274;49.874;9.154;2023-07-22T02:48:06;100179.69;;;14.02;100.00
71465;BME280;59274;49.874;9.154;2023-07-22T02:50:31;100174.63;;;14.01;100.00
71465;BME280;59274;49.874;9.154;2023-07-22T02:52:57;100181.25;;;14.00;100.00
71465;BME280;59274;49.874;9.154;2023-07-22T02:55:22;100192.56;;;14.02;100.00
71465;BME280;59274;49.874;9.154;2023-07-22T02:57:48;100179.69;;;14.06;100.00
71465;BME280;59274;49.874;9.154;2023-07-22T03:00:16;100183.22;;;13.96;100.00
71465;BME280;59274;49.874;9.154;2023-07-22T03:02:56;100180.88;;;13.98;100.00
71465;BME280;59274;49.874;9.154;2023-07-22T03:05:31;100184.41;;;13.98;100.00
71465;BME280;59274;49.874;9.154;2023-07-22T03:07:58;100182.84;;;13.94;100.00
71465;BME280;59274;49.874;9.154;2023-07-22T03:10:24;100187.16;;;13.91;100.00
71465;BME280;59274;49.874;9.154;2023-07-22T03:12:55;100191.47;;;13.82;100.00
71465;BME280;59274;49.874;9.154;2023-07-22T03:15:24;100198.13;;;13.73;100.00
71465;BME280;59274;49.874;9.154;2023-07-22T03:17:51;100198.94;;;13.70;100.00
71465;BME280;59274;49.874;9.154;2023-07-22T03:20:16;100203.63;;;13.63;100.00
71465;BME280;59274;49.874;9.154;2023-07-22T03:22:44;100205.16;;;13.60;100.00
71465;BME280;59274;49.874;9.154;2023-07-22T03:25:10;100195.06;;;13.47;100.00
71465;BME280;59274;49.874;9.154;2023-07-22T03:27:36;100207.16;;;13.35;100.00
71465;BME280;59274;49.874;9.154;2023-07-22T03:30:03;100213.78;;;13.34;100.00
71465;BME280;59274;49.874;9.154;2023-07-22T03:32:29;100207.16;;;13.35;100.00
71465;BME280;59274;49.874;9.154;2023-07-22T03:34:54;100205.22;;;13.43;100.00
71465;BME280;59274;49.874;9.154;2023-07-22T03:37:19;100203.66;;;13.49;100.00
71465;BME280;59274;49.874;9.154;2023-07-22T03:39:45;100203.63;;;13.56;100.00
71465;BME280;59274;49.874;9.154;2023-07-22T03:42:11;100211.44;;;13.54;100.00
71465;BME280;59274;49.874;9.154;2023-07-22T03:44:37;100212.59;;;13.56;100.00
71465;BME280;59274;49.874;9.154;2023-07-22T03:47:02;100215.69;;;13.51;100.00
71465;BME280;59274;49.874;9.154;2023-07-22T03:49:28;100216.84;;;13.68;100.00
71465;BME280;59274;49.874;9.154;2023-07-22T03:51:53;100212.94;;;13.65;100.00
71465;BME280;59274;49.874;9.154;2023-07-22T03:54:18;100222.31;;;13.64;100.00
71465;BME280;59274;49.874;9.154;2023-07-22T03:56:44;100223.09;;;13.68;100.00
71465;BME280;59274;49.874;9.154;2023-07-22T03:59:09;100223.09;;;13.68;100.00
71465;BME280;59274;49.874;9.154;2023-07-22T04:01:35;100222.31;;;13.68;100.00
71465;BME280;59274;49.874;9.154;2023-07-22T04:04:00;100220.72;;;13.74;100.00
71465;BME280;59274;49.874;9.154;2023-07-22T04:06:29;100214.47;;;13.84;100.00
71465;BME280;59274;49.874;9.154;2023-07-22T04:08:54;100212.06;;;14.00;100.00
71465;BME280;59274;49.874;9.154;2023-07-22T04:11:20;100214.81;;;14.00;100.00
71465;BME280;59274;49.874;9.154;2023-07-22T04:13:45;100206.19;;;14.09;100.00
71465;BME280;59274;49.874;9.154;2023-07-22T04:16:11;100202.69;;;14.08;100.00
71465;BME280;59274;49.874;9.154;2023-07-22T04:18:36;100203.44;;;14.16;100.00
71465;BME280;59274;49.874;9.154;2023-07-22T04:21:02;100202.63;;;14.26;100.00
71465;BME280;59274;49.874;9.154;2023-07-22T04:23:27;100200.63;;;14.30;100.00
71465;BME280;59274;49.874;9.154;2023-07-22T04:25:52;100201.81;;;14.33;100.00
71465;BME280;59274;49.874;9.154;2023-07-22T04:28:18;100199.06;;;14.33;100.00
71465;BME280;59274;49.874;9.154;2023-07-22T04:30:54;100204.50;;;14.36;100.00
71465;BME280;59274;49.874;9.154;2023-07-22T04:33:20;100203.72;;;14.36;100.00
71465;BME280;59274;49.874;9.154;2023-07-22T04:35:45;100208.81;;;14.34;100.00
71465;BME280;59274;49.874;9.154;2023-07-22T04:38:11;100211.94;;;14.32;100.00
71465;BME280;59274;49.874;9.154;2023-07-22T04:40:36;100225.25;;;14.23;100.00
71465;BME280;59274;49.874;9.154;2023-07-22T04:43:02;100212.78;;;14.15;100.00
71465;BME280;59274;49.874;9.154;2023-07-22T04:45:28;100221.78;;;14.19;100.00
71465;BME280;59274;49.874;9.154;2023-07-22T04:47:54;100222.19;;;14.10;100.00
71465;BME280;59274;49.874;9.154;2023-07-22T04:50:19;100231.16;;;14.11;100.00
71465;BME280;59274;49.874;9.154;2023-07-22T04:52:46;100219.44;;;14.18;100.00
71465;BME280;59274;49.874;9.154;2023-07-22T04:55:12;100219.78;;;14.27;100.00
71465;BME280;59274;49.874;9.154;2023-07-22T04:57:39;100227.56;;;14.32;100.00
71465;BME280;59274;49.874;9.154;2023-07-22T05:00:09;100221.34;;;14.28;100.00
71465;BME280;59274;49.874;9.154;2023-07-22T05:02:35;100224.78;;;14.42;100.00
71465;BME280;59274;49.874;9.154;2023-07-22T05:05:00;100225.91;;;14.52;100.00
71465;BME280;59274;49.874;9.154;2023-07-22T05:07:26;100229.41;;;14.60;100.00
71465;BME280;59274;49.874;9.154;2023-07-22T05:09:52;100232.44;;;14.72;100.00
71465;BME280;59274;49.874;9.154;2023-07-22T05:12:17;100223.88;;;14.70;100.00
71465;BME280;59274;49.874;9.154;2023-07-22T05:14:45;100228.47;;;14.84;100.00
71465;BME280;59274;49.874;9.154;2023-07-22T05:17:11;100234.63;;;14.95;100.00
71465;BME280;59274;49.874;9.154;2023-07-22T05:19:36;100236.47;;;15.12;100.00
71465;BME280;59274;49.874;9.154;2023-07-22T05:22:01;100241.47;;;15.21;100.00
71465;BME280;59274;49.874;9.154;2023-07-22T05:24:27;100241.72;;;15.37;100.00
71465;BME280;59274;49.874;9.154;2023-07-22T05:26:52;100246.31;;;15.54;100.00
71465;BME280;59274;49.874;9.154;2023-07-22T05:29:19;100242.06;;;15.87;100.00
71465;BME280;59274;49.874;9.154;2023-07-22T05:31:45;100241.72;;;16.19;100.00
71465;BME280;59274;49.874;9.154;2023-07-22T05:34:12;100241.00;;;16.42;100.00
71465;BME280;59274;49.874;9.154;2023-07-22T05:36:37;100239.34;;;16.52;100.00
71465;BME280;59274;49.874;9.154;2023-07-22T05:39:03;100240.09;;;16.52;100.00
71465;BME280;59274;49.874;9.154;2023-07-22T05:41:28;100233.38;;;16.57;100.00
71465;BME280;59274;49.874;9.154;2023-07-22T05:43:54;100232.91;;;16.65;100.00
71465;BME280;59274;49.874;9.154;2023-07-22T05:46:19;100230.56;;;16.64;100.00
71465;BME280;59274;49.874;9.154;2023-07-22T05:48:44;100236.72;;;16.71;100.00
71465;BME280;59274;49.874;9.154;2023-07-22T05:51:10;100239.34;;;16.82;100.00
71465;BME280;59274;49.874;9.154;2023-07-22T05:53:35;100238.66;;;16.74;100.00
71465;BME280;59274;49.874;9.154;2023-07-22T05:56:01;100237.28;;;16.59;100.00
71465;BME280;59274;49.874;9.154;2023-07-22T05:58:26;100235.81;;;16.51;100.00
71465;BME280;59274;49.874;9.154;2023-07-22T06:00:53;100237.25;;;16.63;100.00
71465;BME280;59274;49.874;9.154;2023-07-22T06:03:19;100241.66;;;16.53;100.00
71465;BME280;59274;49.874;9.154;2023-07-22T06:05:49;100236.56;;;16.55;100.00
71465;BME280;59274;49.874;9.154;2023-07-22T06:08:14;100240.41;;;16.61;100.00
71465;BME280;59274;49.874;9.154;2023-07-22T06:10:40;100236.03;;;16.67;100.00
71465;BME280;59274;49.874;9.154;2023-07-22T06:13:06;100239.06;;;16.73;100.00
71465;BME280;59274;49.874;9.154;2023-07-22T06:15:32;100241.81;;;16.73;100.00
71465;BME280;59274;49.874;9.154;2023-07-22T06:17:57;100249.69;;;16.98;100.00
71465;BME280;59274;49.874;9.154;2023-07-22T06:20:23;100247.19;;;17.07;100.00
71465;BME280;59274;49.874;9.154;2023-07-22T06:22:48;100250.88;;;17.20;100.00
71465;BME280;59274;49.874;9.154;2023-07-22T06:25:14;100247.00;;;17.41;100.00
71465;BME280;59274;49.874;9.154;2023-07-22T06:27:39;100255.94;;;17.72;98.96
71465;BME280;59274;49.874;9.154;2023-07-22T06:30:05;100247.41;;;17.86;97.59
71465;BME280;59274;49.874;9.154;2023-07-22T06:32:31;100245.94;;;18.21;95.79
71465;BME280;59274;49.874;9.154;2023-07-22T06:34:57;100252.09;;;18.28;91.83
71465;BME280;59274;49.874;9.154;2023-07-22T06:37:23;100253.06;;;18.58;93.11
71465;BME280;59274;49.874;9.154;2023-07-22T06:39:49;100248.41;;;18.91;91.26
71465;BME280;59274;49.874;9.154;2023-07-22T06:42:14;100252.28;;;18.93;90.07
71465;BME280;59274;49.874;9.154;2023-07-22T06:44:40;100249.34;;;19.00;87.73
71465;BME280;59274;49.874;9.154;2023-07-22T06:47:05;100251.59;;;19.05;88.81
71465;BME280;59274;49.874;9.154;2023-07-22T06:49:31;100253.31;;;18.99;85.72
71465;BME280;59274;49.874;9.154;2023-07-22T06:51:57;100250.53;;;18.83;86.45
71465;BME280;59274;49.874;9.154;2023-07-22T06:54:22;100265.44;;;18.86;88.84
71465;BME280;59274;49.874;9.154;2023-07-22T06:56:47;100262.50;;;18.93;85.94
71465;BME280;59274;49.874;9.154;2023-07-22T06:59:13;100253.47;;;18.92;86.30
71465;BME280;59274;49.874;9.154;2023-07-22T07:01:38;100254.94;;;19.13;88.44
71465;BME280;59274;49.874;9.154;2023-07-22T07:04:03;100261.94;;;19.01;89.35
71465;BME280;59274;49.874;9.154;2023-07-22T07:06:29;100258.28;;;19.04;88.19
71465;BME280;59274;49.874;9.154;2023-07-22T07:08:55;100261.56;;;18.99;88.97
71465;BME280;59274;49.874;9.154;2023-07-22T07:11:20;100257.09;;;18.89;88.99
71465;BME280;59274;49.874;9.154;2023-07-22T07:13:46;100257.19;;;19.02;88.70
71465;BME280;59274;49.874;9.154;2023-07-22T07:16:24;100258.03;;;18.99;88.76
71465;BME280;59274;49.874;9.154;2023-07-22T07:18:50;100256.41;;;19.01;86.24
71465;BME280;59274;49.874;9.154;2023-07-22T07:21:17;100261.38;;;18.90;84.92
71465;BME280;59274;49.874;9.154;2023-07-22T07:23:43;100266.13;;;18.90;86.74
71465;BME280;59274;49.874;9.154;2023-07-22T07:26:08;100259.78;;;19.09;88.19
71465;BME280;59274;49.874;9.154;2023-07-22T07:28:34;100254.63;;;19.11;85.36
71465;BME280;59274;49.874;9.154;2023-07-22T07:30:59;100258.41;;;19.17;83.26
71465;BME280;59274;49.874;9.154;2023-07-22T07:33:25;100264.69;;;19.17;84.18
71465;BME280;59274;49.874;9.154;2023-07-22T07:35:51;100264.25;;;19.35;84.67
71465;BME280;59274;49.874;9.154;2023-07-22T07:38:16;100265.28;;;19.41;83.34
71465;BME280;59274;49.874;9.154;2023-07-22T07:40:41;100270.03;;;19.57;82.18
71465;BME280;59274;49.874;9.154;2023-07-22T07:43:07;100266.56;;;19.69;82.83
71465;BME280;59274;49.874;9.154;2023-07-22T07:45:32;100267.00;;;19.97;82.23
71465;BME280;59274;49.874;9.154;2023-07-22T07:47:58;100274.22;;;20.07;81.29
71465;BME280;59274;49.874;9.154;2023-07-22T07:50:23;100263.34;;;20.16;80.89
71465;BME280;59274;49.874;9.154;2023-07-22T07:52:49;100262.44;;;20.06;79.25
71465;BME280;59274;49.874;9.154;2023-07-22T07:55:14;100260.97;;;20.02;78.60
71465;BME280;59274;49.874;9.154;2023-07-22T07:57:40;100263.16;;;20.23;79.62
71465;BME280;59274;49.874;9.154;2023-07-22T08:00:06;100264.44;;;20.47;77.89
71465;BME280;59274;49.874;9.154;2023-07-22T08:02:34;100257.50;;;20.55;76.30
71465;BME280;59274;49.874;9.154;2023-07-22T08:05:00;100259.81;;;20.57;74.99
71465;BME280;59274;49.874;9.154;2023-07-22T08:07:25;100259.59;;;20.89;75.73
71465;BME280;59274;49.874;9.154;2023-07-22T08:09:51;100265.94;;;21.02;74.35
71465;BME280;59274;49.874;9.154;2023-07-22T08:12:18;100266.34;;;21.26;74.62
71465;BME280;59274;49.874;9.154;2023-07-22T08:14:44;100262.53;;;21.58;72.49
71465;BME280;59274;49.874;9.154;2023-07-22T08:17:10;100253.44;;;21.70;74.28
71465;BME280;59274;49.874;9.154;2023-07-22T08:19:35;100255.56;;;21.66;73.61
71465;BME280;59274;49.874;9.154;2023-07-22T08:22:01;100261.38;;;21.68;72.64
71465;BME280;59274;49.874;9.154;2023-07-22T08:24:26;100266.22;;;21.77;74.24
71465;BME280;59274;49.874;9.154;2023-07-22T08:26:52;100250.13;;;21.97;72.17
71465;BME280;59274;49.874;9.154;2023-07-22T08:29:17;100250.41;;;22.12;72.01
71465;BME280;59274;49.874;9.154;2023-07-22T08:31:42;100253.75;;;22.07;71.89
71465;BME280;59274;49.874;9.154;2023-07-22T08:34:08;100242.53;;;22.10;69.71
71465;BME280;59274;49.874;9.154;2023-07-22T08:36:34;100246.03;;;22.23;69.06
71465;BME280;59274;49.874;9.154;2023-07-22T08:38:59;100250.97;;;22.59;68.09
71465;BME280;59274;49.874;9.154;2023-07-22T08:41:25;100247.41;;;22.81;67.63
71465;BME280;59274;49.874;9.154;2023-07-22T08:43:51;100252.78;;;22.75;67.08
71465;BME280;59274;49.874;9.154;2023-07-22T08:46:20;100253.44;;;22.79;66.64
71465;BME280;59274;49.874;9.154;2023-07-22T08:48:49;100251.88;;;22.78;66.62
71465;BME280;59274;49.874;9.154;2023-07-22T08:51:19;100250.47;;;22.74;68.00
71465;BME280;59274;49.874;9.154;2023-07-22T08:53:45;100248.13;;;22.72;68.50
71465;BME280;59274;49.874;9.154;2023-07-22T08:56:11;100237.72;;;22.76;66.24
71465;BME280;59274;49.874;9.154;2023-07-22T08:58:38;100240.16;;;22.74;66.86
71465;BME280;59274;49.874;9.154;2023-07-22T09:01:04;100245.81;;;22.71;66.35
71465;BME280;59274;49.874;9.154;2023-07-22T09:03:31;100247.13;;;22.79;66.87
71465;BME280;59274;49.874;9.154;2023-07-22T09:05:57;100242.03;;;22.77;65.10
71465;BME280;59274;49.874;9.154;2023-07-22T09:08:23;100247.91;;;22.88;66.77
71465;BME280;59274;49.874;9.154;2023-07-22T09:10:49;100248.41;;;22.96;65.31
71465;BME280;59274;49.874;9.154;2023-07-22T09:13:15;100246.56;;;23.02;62.39
71465;BME280;59274;49.874;9.154;2023-07-22T09:15:41;100242.69;;;22.90;58.81
71465;BME280;59274;49.874;9.154;2023-07-22T09:18:07;100238.69;;;22.91;59.38
71465;BME280;59274;49.874;9.154;2023-07-22T09:20:33;100236.66;;;22.83;58.54
71465;BME280;59274;49.874;9.154;2023-07-22T09:23:00;100227.41;;;22.77;55.79
71465;BME280;59274;49.874;9.154;2023-07-22T09:25:27;100240.25;;;22.92;57.19
71465;BME280;59274;49.874;9.154;2023-07-22T09:27:59;100225.81;;;23.07;55.82
71465;BME280;59274;49.874;9.154;2023-07-22T09:33:00;100234.19;;;23.34;53.22
71465;BME280;59274;49.874;9.154;2023-07-22T09:35:28;100223.72;;;23.38;52.28
71465;BME280;59274;49.874;9.154;2023-07-22T09:37:54;100223.38;;;23.18;52.15
71465;BME280;59274;49.874;9.154;2023-07-22T09:40:23;100226.72;;;22.94;56.02
71465;BME280;59274;49.874;9.154;2023-07-22T09:42:56;100223.78;;;22.98;58.02
71465;BME280;59274;49.874;9.154;2023-07-22T09:45:29;100230.75;;;23.12;59.06
71465;BME280;59274;49.874;9.154;2023-07-22T09:47:55;100224.59;;;23.17;57.46
71465;BME280;59274;49.874;9.154;2023-07-22T09:50:26;100224.59;;;23.17;56.88
71465;BME280;59274;49.874;9.154;2023-07-22T09:52:55;100217.22;;;23.14;54.30
71465;BME280;59274;49.874;9.154;2023-07-22T09:55:26;100214.06;;;22.84;54.68
71465;BME280;59274;49.874;9.154;2023-07-22T09:57:55;100222.69;;;22.95;52.13
71465;BME280;59274;49.874;9.154;2023-07-22T10:00:23;100217.09;;;22.77;52.24
71465;BME280;59274;49.874;9.154;2023-07-22T10:02:51;100217.28;;;22.52;53.47
71465;BME280;59274;49.874;9.154;2023-07-22T10:05:18;100211.66;;;22.64;52.80
71465;BME280;59274;49.874;9.154;2023-07-22T10:07:49;100216.03;;;22.84;52.98
71465;BME280;59274;49.874;9.154;2023-07-22T10:10:18;100210.28;;;22.69;53.51
71465;BME280;59274;49.874;9.154;2023-07-22T10:12:44;100219.25;;;22.73;53.53
71465;BME280;59274;49.874;9.154;2023-07-22T10:15:11;100207.31;;;22.63;54.05
71465;BME280;59274;49.874;9.154;2023-07-22T10:17:38;100209.16;;;22.66;53.47
71465;BME280;59274;49.874;9.154;2023-07-22T10:20:04;100204.84;;;22.96;55.64
71465;BME280;59274;49.874;9.154;2023-07-22T10:22:34;100209.03;;;23.01;53.40
71465;BME280;59274;49.874;9.154;2023-07-22T10:25:00;100208.63;;;22.81;52.92
71465;BME280;59274;49.874;9.154;2023-07-22T10:27:26;100196.06;;;22.89;52.17
71465;BME280;59274;49.874;9.154;2023-07-22T10:29:54;100200.81;;;22.88;53.98
71465;BME280;59274;49.874;9.154;2023-07-22T10:32:20;100194.72;;;23.12;52.22
71465;BME280;59274;49.874;9.154;2023-07-22T10:34:46;100193.31;;;22.98;52.87
71465;BME280;59274;49.874;9.154;2023-07-22T10:37:11;100191.00;;;22.96;51.89
71465;BME280;59274;49.874;9.154;2023-07-22T10:39:37;100184.72;;;23.05;52.60
71465;BME280;59274;49.874;9.154;2023-07-22T10:42:04;100191.28;;;22.89;52.20
71465;BME280;59274;49.874;9.154;2023-07-22T10:44:35;100179.63;;;23.03;51.27
71465;BME280;59274;49.874;9.154;2023-07-22T10:47:01;100179.97;;;23.15;51.22
71465;BME280;59274;49.874;9.154;2023-07-22T10:49:43;100175.97;;;23.34;51.20
71465;BME280;59274;49.874;9.154;2023-07-22T10:52:11;100177.19;;;23.33;51.52
71465;BME280;59274;49.874;9.154;2023-07-22T10:54:38;100173.19;;;23.25;50.67
71465;BME280;59274;49.874;9.154;2023-07-22T10:57:22;100174.22;;;22.91;51.15
71465;BME280;59274;49.874;9.154;2023-07-22T10:59:50;100177.81;;;22.70;52.05
71465;BME280;59274;49.874;9.154;2023-07-22T11:02:29;100176.78;;;22.45;51.68
71465;BME280;59274;49.874;9.154;2023-07-22T11:04:58;100189.94;;;22.32;52.46
71465;BME280;59274;49.874;9.154;2023-07-22T11:07:32;100175.59;;;22.24;53.21
71465;BME280;59274;49.874;9.154;2023-07-22T11:09:57;100182.25;;;22.27;52.97
71465;BME280;59274;49.874;9.154;2023-07-22T11:12:24;100174.50;;;22.53;52.22
71465;BME280;59274;49.874;9.154;2023-07-22T11:14:52;100167.31;;;23.04;51.35
71465;BME280;59274;49.874;9.154;2023-07-22T11:17:27;100174.09;;;23.31;50.96
71465;BME280;59274;49.874;9.154;2023-07-22T11:19:55;100163.66;;;23.44;49.82
71465;BME280;59274;49.874;9.154;2023-07-22T11:22:21;100167.38;;;23.77;50.83
71465;BME280;59274;49.874;9.154;2023-07-22T11:24:46;100173.81;;;23.93;49.22
71465;BME280;59274;49.874;9.154;2023-07-22T11:27:12;100170.22;;;24.10;47.63
71465;BME280;59274;49.874;9.154;2023-07-22T11:29:38;100161.63;;;23.99;47.54
71465;BME280;59274;49.874;9.154;2023-07-22T11:32:04;100161.00;;;24.04;47.04
71465;BME280;59274;49.874;9.154;2023-07-22T11:34:29;100159.50;;;23.85;47.63
71465;BME280;59274;49.874;9.154;2023-07-22T11:36:56;100153.81;;;23.70;47.92
71465;BME280;59274;49.874;9.154;2023-07-22T11:39:24;100163.38;;;23.69;47.53
71465;BME280;59274;49.874;9.154;2023-07-22T11:41:50;100159.50;;;23.85;49.70
71465;BME280;59274;49.874;9.154;2023-07-22T11:44:18;100150.66;;;24.05;48.41
71465;BME280;59274;49.874;9.154;2023-07-22T11:46:57;100149.22;;;24.37;46.81
71465;BME280;59274;49.874;9.154;2023-07-22T11:49:24;100134.50;;;25.02;47.06
71465;BME280;59274;49.874;9.154;2023-07-22T11:51:51;100139.22;;;25.34;44.59
71465;BME280;59274;49.874;9.154;2023-07-22T11:54:21;100139.50;;;25.22;45.43
71465;BME280;59274;49.874;9.154;2023-07-22T11:56:46;100139.19;;;24.96;44.60
71465;BME280;59274;49.874;9.154;2023-07-22T11:59:11;100135.75;;;24.77;45.82
71465;BME280;59274;49.874;9.154;2023-07-22T12:01:37;100137.13;;;24.73;44.13
71465;BME280;59274;49.874;9.154;2023-07-22T12:04:11;100137.47;;;24.66;45.54
71465;BME280;59274;49.874;9.154;2023-07-22T12:06:37;100134.25;;;24.67;45.02
71465;BME280;59274;49.874;9.154;2023-07-22T12:09:03;100133.97;;;24.65;45.05
71465;BME280;59274;49.874;9.154;2023-07-22T12:11:32;100137.13;;;24.49;42.58
71465;BME280;59274;49.874;9.154;2023-07-22T12:14:07;100124.28;;;24.51;43.77
71465;BME280;59274;49.874;9.154;2023-07-22T12:16:34;100130.44;;;24.55;43.77
71465;BME280;59274;49.874;9.154;2023-07-22T12:19:01;100127.75;;;24.70;43.92
71465;BME280;59274;49.874;9.154;2023-07-22T12:21:27;100117.78;;;25.11;43.39
71465;BME280;59274;49.874;9.154;2023-07-22T12:23:53;100117.25;;;25.36;42.06
71465;BME280;59274;49.874;9.154;2023-07-22T12:26:18;100118.78;;;25.38;41.86
71465;BME280;59274;49.874;9.154;2023-07-22T12:28:44;100109.44;;;26.08;42.31
71465;BME280;59274;49.874;9.154;2023-07-22T12:31:22;100108.38;;;26.21;42.11
71465;BME280;59274;49.874;9.154;2023-07-22T12:33:48;100100.00;;;26.50;41.23
71465;BME280;59274;49.874;9.154;2023-07-22T12:36:16;100100.19;;;26.67;39.66
71465;BME280;59274;49.874;9.154;2023-07-22T12:38:41;100102.22;;;26.17;40.33
71465;BME280;59274;49.874;9.154;2023-07-22T12:41:07;100096.16;;;25.45;41.07
71465;BME280;59274;49.874;9.154;2023-07-22T12:43:32;100090.19;;;25.90;40.11
71465;BME280;59274;49.874;9.154;2023-07-22T12:45:58;100088.53;;;25.98;39.64